Time;durP1;ratioP1;P1;durP2;ratioP2;P2;SDS_P1;SDS_P2;PMS_P1;PMS_P2;Temp;Humidity;BMP_temperature;BMP_pressure;BME280_temperature;BME280_humidity;BME280_pressure;Samples;Min_cycle;Max_cycle;Signal;HPM_P1;HPM_P2
2022/07/23 00:01:21;;;;;;;4.40;2.70;;;13.80;99.90;;;;;;5050403;28;20044;-62
2022/07/23 00:03:47;;;;;;;6.43;2.50;;;13.90;99.90;;;;;;5051926;28;20041;-62
2022/07/23 00:06:13;;;;;;;8.18;2.72;;;13.90;99.90;;;;;;5050540;28;20036;-62
2022/07/23 00:08:38;;;;;;;4.90;2.50;;;13.90;99.90;;;;;;5048311;28;20041;-62
2022/07/23 00:11:04;;;;;;;6.82;2.95;;;14.00;99.90;;;;;;5057670;28;20127;-62
2022/07/23 00:13:30;;;;;;;7.65;2.75;;;13.90;99.90;;;;;;5053506;28;20453;-62
2022/07/23 00:15:55;;;;;;;2.97;2.15;;;13.90;99.90;;;;;;5049725;28;20036;-62
2022/07/23 00:18:21;;;;;;;5.30;2.47;;;13.90;99.90;;;;;;5069021;28;20379;-62
2022/07/23 00:20:47;;;;;;;5.90;2.45;;;13.90;99.90;;;;;;5048064;28;20090;-62
2022/07/23 00:23:13;;;;;;;5.45;2.88;;;13.90;99.90;;;;;;5053786;28;20048;-62
2022/07/23 00:25:39;;;;;;;4.75;2.55;;;13.80;99.90;;;;;;5055011;28;20041;-62
2022/07/23 00:28:05;;;;;;;4.32;2.47;;;13.80;99.90;;;;;;5049201;28;20047;-62
2022/07/23 00:30:32;;;;;;;4.75;2.75;;;13.70;99.90;;;;;;5051680;28;20112;-62
2022/07/23 00:33:00;;;;;;;7.20;2.75;;;13.70;99.90;;;;;;5047208;28;20045;-62
2022/07/23 00:35:28;;;;;;;3.80;2.40;;;13.60;99.90;;;;;;5041299;28;20056;-62
2022/07/23 00:37:55;;;;;;;3.67;2.70;;;13.60;99.90;;;;;;5055473;28;20117;-62
2022/07/23 00:40:20;;;;;;;3.58;2.33;;;13.60;99.90;;;;;;5049187;28;20048;-62
2022/07/23 00:42:46;;;;;;;3.53;2.35;;;13.50;99.90;;;;;;5050115;28;20033;-62
2022/07/23 00:45:12;;;;;;;4.55;2.50;;;13.40;99.90;;;;;;5057276;28;20078;-62
2022/07/23 00:47:37;;;;;;;3.85;2.38;;;13.40;99.90;;;;;;5051804;28;20041;-62
2022/07/23 00:50:05;;;;;;;3.65;2.17;;;13.30;99.90;;;;;;5058987;28;20202;-62
2022/07/23 00:52:32;;;;;;;3.08;2.78;;;13.30;99.90;;;;;;5058856;28;20037;-62
2022/07/23 00:54:58;;;;;;;3.25;2.08;;;13.20;99.90;;;;;;5054285;28;20130;-62
2022/07/23 00:57:23;;;;;;;4.78;2.85;;;13.20;99.90;;;;;;5063652;28;20516;-62
2022/07/23 00:59:49;;;;;;;4.72;2.40;;;13.20;99.90;;;;;;5055409;28;20056;-62
2022/07/23 01:02:15;;;;;;;3.22;2.28;;;13.20;99.90;;;;;;5060385;28;20032;-62
2022/07/23 01:04:40;;;;;;;4.22;2.67;;;13.10;99.90;;;;;;5054597;28;20040;-62
2022/07/23 01:07:07;;;;;;;3.25;2.30;;;13.10;99.90;;;;;;5049551;28;20099;-62
2022/07/23 01:09:32;;;;;;;5.13;2.30;;;13.00;99.90;;;;;;5058473;28;20037;-62
2022/07/23 01:11:59;;;;;;;4.13;2.40;;;13.00;99.90;;;;;;5057641;28;20433;-62
2022/07/23 01:14:25;;;;;;;3.58;2.65;;;12.90;99.90;;;;;;5052956;28;20037;-62
2022/07/23 01:16:51;;;;;;;5.05;2.50;;;12.90;99.90;;;;;;5055800;28;20036;-62
2022/07/23 01:19:17;;;;;;;4.03;2.70;;;12.80;99.90;;;;;;5049507;28;20041;-62
2022/07/23 01:21:47;;;;;;;3.22;2.92;;;12.80;99.90;;;;;;5049259;28;20068;-62
2022/07/23 01:24:13;;;;;;;4.03;2.55;;;12.80;99.90;;;;;;5052477;28;20044;-62
2022/07/23 01:26:44;;;;;;;4.10;2.42;;;12.80;99.90;;;;;;5052255;28;20190;-62
2022/07/23 01:29:09;;;;;;;2.38;2.03;;;12.70;99.90;;;;;;5049815;28;20067;-62
2022/07/23 01:31:35;;;;;;;6.47;2.58;;;12.70;99.90;;;;;;5052573;28;20061;-61
2022/07/23 01:34:01;;;;;;;4.82;2.80;;;12.70;99.90;;;;;;5051168;28;20043;-62
2022/07/23 01:36:27;;;;;;;5.47;2.45;;;12.60;99.90;;;;;;5052425;28;20456;-62
2022/07/23 01:38:52;;;;;;;4.57;2.83;;;12.60;99.90;;;;;;5060625;28;20527;-62
2022/07/23 01:41:18;;;;;;;3.78;2.72;;;12.50;99.90;;;;;;5055917;28;20044;-62
2022/07/23 01:43:44;;;;;;;3.80;2.95;;;12.50;99.90;;;;;;5053909;28;20040;-62
2022/07/23 01:46:10;;;;;;;6.15;3.00;;;12.50;99.90;;;;;;5050218;28;20469;-62
2022/07/23 01:48:36;;;;;;;5.43;2.90;;;12.50;99.90;;;;;;5056238;28;21151;-62
2022/07/23 01:51:02;;;;;;;5.30;3.28;;;12.50;99.90;;;;;;5048030;28;20040;-61
2022/07/23 01:53:28;;;;;;;5.43;3.10;;;12.40;99.90;;;;;;5062515;28;20127;-62
2022/07/23 01:55:53;;;;;;;6.88;2.80;;;12.40;99.90;;;;;;5052386;28;20131;-62
2022/07/23 01:58:19;;;;;;;3.70;2.65;;;12.40;99.90;;;;;;5047592;28;20060;-62
2022/07/23 02:00:44;;;;;;;6.38;3.10;;;12.40;99.90;;;;;;5049563;28;20036;-62
2022/07/23 02:03:10;;;;;;;4.28;2.70;;;12.30;99.90;;;;;;5052188;28;20403;-62
2022/07/23 02:05:36;;;;;;;5.22;3.20;;;12.30;99.90;;;;;;5051791;28;20043;-62
2022/07/23 02:08:01;;;;;;;4.78;2.92;;;12.30;99.90;;;;;;5046347;28;20040;-62
2022/07/23 02:10:27;;;;;;;3.55;2.83;;;12.20;99.90;;;;;;5047064;28;20043;-62
2022/07/23 02:12:53;;;;;;;3.78;2.42;;;12.20;99.90;;;;;;5052206;28;20048;-62
2022/07/23 02:15:19;;;;;;;4.35;2.75;;;12.20;99.90;;;;;;5048115;28;20048;-62
2022/07/23 02:17:45;;;;;;;4.45;2.92;;;12.10;99.90;;;;;;5059050;28;20124;-62
2022/07/23 02:20:11;;;;;;;7.20;3.40;;;12.10;99.90;;;;;;5054027;28;20029;-62
2022/07/23 02:22:37;;;;;;;4.65;3.33;;;12.00;99.90;;;;;;5057385;28;20527;-62
2022/07/23 02:25:04;;;;;;;5.50;3.40;;;12.00;99.90;;;;;;5053484;28;20055;-62
2022/07/23 02:27:30;;;;;;;6.22;3.25;;;12.00;99.90;;;;;;5046120;28;20484;-62
2022/07/23 02:29:55;;;;;;;6.93;2.88;;;11.90;99.90;;;;;;5051261;28;20048;-62
2022/07/23 02:32:21;;;;;;;6.05;3.20;;;11.90;99.90;;;;;;5057517;28;20040;-62
2022/07/23 02:34:47;;;;;;;5.93;3.45;;;11.90;99.90;;;;;;5046920;28;20044;-62
2022/07/23 02:37:13;;;;;;;5.57;3.25;;;12.00;99.90;;;;;;5048320;28;20106;-62
2022/07/23 02:39:39;;;;;;;4.70;3.65;;;11.90;99.90;;;;;;5047606;28;20048;-62
2022/07/23 02:42:05;;;;;;;5.38;3.72;;;12.00;99.90;;;;;;5057063;28;20043;-62
2022/07/23 02:44:31;;;;;;;5.15;3.30;;;12.10;99.90;;;;;;5056371;28;20044;-62
2022/07/23 02:46:56;;;;;;;6.63;3.83;;;12.10;99.90;;;;;;5059142;28;20044;-62
2022/07/23 02:49:23;;;;;;;4.88;3.35;;;12.10;99.90;;;;;;5065765;28;20048;-62
2022/07/23 02:51:48;;;;;;;7.50;3.67;;;11.90;99.90;;;;;;5050818;28;20055;-61
2022/07/23 02:54:14;;;;;;;5.40;3.53;;;11.90;99.90;;;;;;5052782;28;20033;-62
2022/07/23 02:56:40;;;;;;;4.95;3.70;;;11.80;99.90;;;;;;5050691;28;20110;-62
2022/07/23 02:59:05;;;;;;;6.53;3.38;;;11.80;99.90;;;;;;5060597;28;20048;-62
2022/07/23 03:01:31;;;;;;;6.18;3.35;;;11.70;99.90;;;;;;5053707;28;20048;-60
2022/07/23 03:03:56;;;;;;;5.78;3.33;;;11.70;99.90;;;;;;5055181;28;20080;-62
2022/07/23 03:06:22;;;;;;;4.20;3.22;;;11.70;99.90;;;;;;5054178;28;20036;-62
2022/07/23 03:08:47;;;;;;;8.23;3.50;;;11.60;99.90;;;;;;5061275;28;20037;-62
2022/07/23 03:11:13;;;;;;;8.25;3.90;;;11.60;99.90;;;;;;5054040;28;20581;-61
2022/07/23 03:13:40;;;;;;;4.05;2.80;;;11.60;99.90;;;;;;5054024;28;20029;-62
2022/07/23 03:16:06;;;;;;;6.47;3.47;;;11.60;99.90;;;;;;5055753;28;20044;-62
2022/07/23 03:18:32;;;;;;;7.40;3.75;;;11.70;99.90;;;;;;5053851;28;20044;-62
2022/07/23 03:20:57;;;;;;;6.05;4.00;;;11.70;99.90;;;;;;5058241;28;20524;-62
2022/07/23 03:23:23;;;;;;;5.82;3.83;;;11.70;99.90;;;;;;5054384;28;20194;-62
2022/07/23 03:25:49;;;;;;;8.02;4.30;;;11.60;99.90;;;;;;5052544;28;20385;-61
2022/07/23 03:28:15;;;;;;;6.93;4.18;;;11.60;99.90;;;;;;5058236;28;20032;-62
2022/07/23 03:30:42;;;;;;;5.53;3.75;;;11.60;99.90;;;;;;5061467;28;20040;-62
2022/07/23 03:33:08;;;;;;;5.43;3.15;;;11.60;99.90;;;;;;5058446;28;20511;-62
2022/07/23 03:35:33;;;;;;;5.00;3.17;;;11.60;99.90;;;;;;5053733;28;20037;-62
2022/07/23 03:37:59;;;;;;;3.58;2.47;;;11.60;99.90;;;;;;5063164;28;20044;-62
2022/07/23 03:40:24;;;;;;;4.40;2.80;;;11.50;99.90;;;;;;5054087;28;20037;-62
2022/07/23 03:42:52;;;;;;;5.75;3.30;;;11.40;99.90;;;;;;5061058;28;20060;-62
2022/07/23 03:45:17;;;;;;;5.60;3.60;;;11.40;99.90;;;;;;5057996;28;20483;-61
2022/07/23 03:47:44;;;;;;;5.57;3.55;;;11.30;99.90;;;;;;5060562;28;20052;-62
2022/07/23 03:50:10;;;;;;;7.07;4.20;;;11.30;99.90;;;;;;5050076;28;20052;-62
2022/07/23 03:52:35;;;;;;;6.20;4.30;;;11.30;99.90;;;;;;5055502;28;22389;-62
2022/07/23 03:55:02;;;;;;;6.85;4.72;;;11.30;99.90;;;;;;5059976;28;20048;-62
2022/07/23 03:57:27;;;;;;;7.65;3.88;;;11.30;99.90;;;;;;5051015;28;20095;-61
2022/07/23 03:59:53;;;;;;;6.25;4.05;;;11.40;99.90;;;;;;5050329;28;20040;-62
2022/07/23 04:02:20;;;;;;;5.68;3.92;;;11.30;99.90;;;;;;5061815;28;20056;-62
2022/07/23 04:04:46;;;;;;;9.35;4.38;;;11.30;99.90;;;;;;5054314;28;20040;-62
2022/07/23 04:07:12;;;;;;;7.60;4.18;;;11.30;99.90;;;;;;5051410;28;20047;-62
2022/07/23 04:09:40;;;;;;;9.18;4.40;;;11.30;99.90;;;;;;5051801;28;20040;-61
2022/07/23 04:12:06;;;;;;;6.65;4.13;;;11.30;99.90;;;;;;5049278;28;20063;-62
2022/07/23 04:14:32;;;;;;;7.78;3.92;;;11.30;99.90;;;;;;5050869;28;20029;-62
2022/07/23 04:16:58;;;;;;;7.82;4.03;;;11.30;99.90;;;;;;5052092;28;20037;-62
2022/07/23 04:19:23;;;;;;;6.10;4.00;;;11.30;99.90;;;;;;5049800;28;20105;-62
2022/07/23 04:21:49;;;;;;;7.45;4.55;;;11.50;99.90;;;;;;5049333;28;20488;-62
2022/07/23 04:24:14;;;;;;;7.03;4.97;;;11.50;99.90;;;;;;5053250;28;20041;-62
2022/07/23 04:26:40;;;;;;;7.38;4.90;;;11.60;99.90;;;;;;5051208;28;20503;-62
2022/07/23 04:29:06;;;;;;;11.23;4.85;;;11.60;99.90;;;;;;5048058;28;20049;-62
2022/07/23 04:31:31;;;;;;;11.00;5.03;;;11.70;99.90;;;;;;5052396;28;20536;-62
2022/07/23 04:33:57;;;;;;;6.95;4.90;;;11.70;99.90;;;;;;5049951;28;20366;-62
2022/07/23 04:36:22;;;;;;;8.85;4.22;;;11.80;99.90;;;;;;5050626;28;20037;-62
2022/07/23 04:38:48;;;;;;;7.38;4.68;;;11.70;99.90;;;;;;5057897;28;20036;-61
2022/07/23 04:41:14;;;;;;;6.97;4.60;;;11.70;99.90;;;;;;5063811;28;20091;-62
2022/07/23 04:43:39;;;;;;;7.47;5.35;;;11.80;99.90;;;;;;5058452;28;20052;-62
2022/07/23 04:46:05;;;;;;;10.70;5.00;;;11.80;99.90;;;;;;5053336;28;20053;-62
2022/07/23 04:48:31;;;;;;;8.52;5.03;;;11.80;99.90;;;;;;5051306;28;20036;-62
2022/07/23 04:50:57;;;;;;;8.48;4.65;;;11.90;99.90;;;;;;5049645;28;20041;-62
2022/07/23 04:53:22;;;;;;;8.52;5.07;;;11.90;99.90;;;;;;5056313;28;20041;-62
2022/07/23 04:55:48;;;;;;;9.88;5.25;;;11.90;99.90;;;;;;5053106;28;20029;-62
2022/07/23 04:58:13;;;;;;;8.13;4.45;;;12.00;99.90;;;;;;5059632;28;20056;-62
2022/07/23 05:00:39;;;;;;;9.13;4.78;;;12.10;99.90;;;;;;5054634;28;20143;-62
2022/07/23 05:03:05;;;;;;;11.77;5.38;;;12.10;99.90;;;;;;5049935;28;20037;-62
2022/07/23 05:05:30;;;;;;;8.10;4.70;;;12.20;99.90;;;;;;5062806;28;20040;-62
2022/07/23 05:07:56;;;;;;;12.30;4.97;;;12.30;99.90;;;;;;5055764;28;20048;-62
2022/07/23 05:10:21;;;;;;;7.72;4.45;;;12.40;99.90;;;;;;5050386;28;20055;-62
2022/07/23 05:12:47;;;;;;;9.52;4.80;;;12.60;99.90;;;;;;5056357;28;20101;-62
2022/07/23 05:15:12;;;;;;;10.82;5.60;;;12.70;99.90;;;;;;5050666;28;20412;-62
2022/07/23 05:17:38;;;;;;;8.25;4.65;;;12.80;99.90;;;;;;5061278;28;20437;-62
2022/07/23 05:20:04;;;;;;;9.00;4.50;;;13.00;99.90;;;;;;5048851;28;20519;-63
2022/07/23 05:22:29;;;;;;;7.55;4.80;;;13.10;99.90;;;;;;5061032;28;20611;-62
2022/07/23 05:24:55;;;;;;;10.60;4.53;;;13.30;99.90;;;;;;5050027;28;20056;-63
2022/07/23 05:27:21;;;;;;;7.47;4.43;;;13.50;99.90;;;;;;5050231;28;20045;-63
2022/07/23 05:29:46;;;;;;;9.00;4.65;;;13.60;99.90;;;;;;5054834;28;20587;-62
2022/07/23 05:32:12;;;;;;;8.27;4.38;;;13.80;99.90;;;;;;5064766;28;20119;-62
2022/07/23 05:34:37;;;;;;;11.15;4.38;;;14.00;99.90;;;;;;5061549;28;20472;-63
2022/07/23 05:37:03;;;;;;;7.55;4.03;;;14.10;99.90;;;;;;5049329;28;20484;-62
2022/07/23 05:39:28;;;;;;;8.18;4.63;;;14.30;99.90;;;;;;5051945;28;20051;-63
2022/07/23 05:41:54;;;;;;;8.13;4.30;;;14.50;99.90;;;;;;5060260;28;20136;-63
2022/07/23 05:44:20;;;;;;;6.38;4.30;;;14.60;99.90;;;;;;5050267;28;20054;-62
2022/07/23 05:46:46;;;;;;;4.80;3.67;;;14.70;99.90;;;;;;5068229;28;20135;-63
2022/07/23 05:49:12;;;;;;;5.25;3.80;;;14.90;99.90;;;;;;5051770;28;20463;-63
2022/07/23 05:51:37;;;;;;;5.35;4.13;;;15.00;99.90;;;;;;5050717;28;20033;-63
2022/07/23 05:54:03;;;;;;;5.70;3.42;;;15.10;99.90;;;;;;5046761;28;20515;-63
2022/07/23 05:56:28;;;;;;;6.25;3.40;;;15.30;99.90;;;;;;5061194;28;20386;-62
2022/07/23 05:58:54;;;;;;;4.80;3.40;;;15.50;99.90;;;;;;5053732;28;20139;-63
2022/07/23 06:01:20;;;;;;;5.60;2.70;;;15.70;99.90;;;;;;5057998;28;20041;-63
2022/07/23 06:03:45;;;;;;;3.75;2.90;;;15.80;99.90;;;;;;5055560;28;20028;-63
2022/07/23 06:06:11;;;;;;;4.82;3.08;;;15.90;99.90;;;;;;5050445;28;20033;-63
2022/07/23 06:08:36;;;;;;;4.90;3.20;;;16.20;99.90;;;;;;5060150;28;20473;-62
2022/07/23 06:11:02;;;;;;;2.92;2.22;;;16.30;99.90;;;;;;5063004;28;20342;-63
2022/07/23 06:13:27;;;;;;;4.32;2.70;;;16.40;99.90;;;;;;5049392;28;20037;-63
2022/07/23 06:15:53;;;;;;;5.63;3.15;;;16.60;99.90;;;;;;5050582;28;20041;-63
2022/07/23 06:18:19;;;;;;;5.50;2.80;;;16.70;99.90;;;;;;5050062;28;20033;-62
2022/07/23 06:20:44;;;;;;;5.05;2.67;;;16.90;99.90;;;;;;5051568;28;20039;-62
2022/07/23 06:23:12;;;;;;;4.07;2.50;;;17.10;99.90;;;;;;5049777;28;20064;-62
2022/07/23 06:25:37;;;;;;;5.53;2.90;;;17.20;99.90;;;;;;5059883;28;20158;-63
2022/07/23 06:28:03;;;;;;;3.03;2.25;;;17.40;99.90;;;;;;5049085;28;20131;-63
2022/07/23 06:30:29;;;;;;;3.42;1.90;;;17.50;99.90;;;;;;5048522;28;20036;-63
2022/07/23 06:32:54;;;;;;;3.50;1.70;;;17.70;99.90;;;;;;5048208;28;20040;-63
2022/07/23 06:35:20;;;;;;;3.60;1.80;;;17.90;99.90;;;;;;5056194;28;20047;-63
2022/07/23 06:37:46;;;;;;;4.07;1.83;;;18.10;99.90;;;;;;5054438;28;20033;-63
2022/07/23 06:40:12;;;;;;;2.28;1.70;;;18.10;99.90;;;;;;5064339;28;20040;-63
2022/07/23 06:42:39;;;;;;;6.07;1.80;;;18.30;99.90;;;;;;5050941;28;20048;-63
2022/07/23 06:45:06;;;;;;;2.53;1.13;;;18.40;99.90;;;;;;5053539;28;20037;-63
2022/07/23 06:47:31;;;;;;;3.90;1.60;;;18.60;99.20;;;;;;5057574;28;20396;-63
2022/07/23 06:49:57;;;;;;;3.60;1.48;;;18.70;98.30;;;;;;5052931;28;20048;-63
2022/07/23 06:52:23;;;;;;;1.67;1.27;;;19.00;97.80;;;;;;5052688;28;20508;-63
2022/07/23 06:54:49;;;;;;;2.17;1.15;;;19.20;97.00;;;;;;5049267;28;20041;-63
2022/07/23 06:57:15;;;;;;;2.58;1.10;;;19.40;96.30;;;;;;5062034;28;20137;-63
2022/07/23 06:59:40;;;;;;;3.38;0.70;;;19.50;95.30;;;;;;5054018;28;20543;-63
2022/07/23 07:02:07;;;;;;;3.60;0.90;;;19.60;94.30;;;;;;5055770;28;20087;-63
2022/07/23 07:04:33;;;;;;;1.65;0.90;;;19.80;93.70;;;;;;5057309;28;20052;-63
2022/07/23 07:06:59;;;;;;;1.38;0.68;;;19.90;93.10;;;;;;5060317;28;20052;-63
2022/07/23 07:09:24;;;;;;;1.98;0.70;;;19.90;92.70;;;;;;5055674;28;20236;-63
2022/07/23 07:11:50;;;;;;;2.53;0.90;;;19.90;92.10;;;;;;5059380;28;20040;-63
2022/07/23 07:14:16;;;;;;;2.95;0.68;;;20.10;91.40;;;;;;5057705;28;20032;-62
2022/07/23 07:16:42;;;;;;;3.00;0.70;;;20.30;91.10;;;;;;5050164;28;20036;-63
2022/07/23 07:19:07;;;;;;;1.83;0.60;;;20.50;89.70;;;;;;5062628;28;20063;-63
2022/07/23 07:21:33;;;;;;;0.95;0.40;;;20.70;90.00;;;;;;5053530;28;20045;-63
2022/07/23 07:23:59;;;;;;;1.33;0.73;;;20.90;89.30;;;;;;5051481;28;20047;-63
2022/07/23 07:26:24;;;;;;;2.13;0.68;;;21.00;87.60;;;;;;5059472;28;20486;-63
2022/07/23 07:28:50;;;;;;;1.90;0.47;;;21.20;86.20;;;;;;5054004;28;20068;-63
2022/07/23 07:31:15;;;;;;;4.70;0.63;;;21.40;85.40;;;;;;5053562;28;20059;-64
2022/07/23 07:33:41;;;;;;;1.58;0.45;;;21.60;84.70;;;;;;5060422;28;20479;-63
2022/07/23 07:36:07;;;;;;;1.88;0.63;;;21.80;83.80;;;;;;5061442;28;20122;-64
2022/07/23 07:38:32;;;;;;;1.10;0.65;;;22.10;83.10;;;;;;5054113;28;20036;-63
2022/07/23 07:40:58;;;;;;;0.80;0.40;;;22.10;81.90;;;;;;5059103;28;20507;-65
2022/07/23 07:43:24;;;;;;;1.42;0.68;;;22.30;80.50;;;;;;5051622;28;20440;-64
2022/07/23 07:45:49;;;;;;;2.95;0.65;;;22.50;79.30;;;;;;5053717;28;20468;-64
2022/07/23 07:48:15;;;;;;;0.85;0.50;;;22.60;77.90;;;;;;5057544;28;20040;-64
2022/07/23 07:50:41;;;;;;;1.60;0.47;;;22.50;77.40;;;;;;5067964;28;20028;-63
2022/07/23 07:53:06;;;;;;;1.50;0.70;;;22.20;77.70;;;;;;5052020;28;20078;-63
2022/07/23 07:55:32;;;;;;;1.15;0.60;;;22.20;76.90;;;;;;5050368;28;20471;-63
2022/07/23 07:57:58;;;;;;;1.08;0.65;;;22.80;76.10;;;;;;5057625;28;20052;-63
2022/07/23 08:00:24;;;;;;;1.33;0.60;;;23.30;74.60;;;;;;5053257;28;20049;-63
2022/07/23 08:02:51;;;;;;;0.55;0.47;;;23.50;72.50;;;;;;5050379;28;20695;-63
2022/07/23 08:05:23;;;;;;;0.90;0.60;;;23.30;71.40;;;;;;5071385;28;20037;-63
2022/07/23 08:07:48;;;;;;;1.13;0.40;;;23.20;70.20;;;;;;5052489;28;21963;-63
2022/07/23 08:10:15;;;;;;;1.60;0.40;;;23.30;70.30;;;;;;5052206;28;20044;-63
2022/07/23 08:12:49;;;;;;;1.45;0.47;;;23.20;69.50;;;;;;5051630;28;20041;-63
2022/07/23 08:15:17;;;;;;;1.80;0.50;;;23.30;67.60;;;;;;5058616;28;20070;-64
2022/07/23 08:17:44;;;;;;;1.48;0.50;;;22.90;68.20;;;;;;5070830;28;20035;-63
2022/07/23 08:20:12;;;;;;;1.33;0.60;;;22.70;68.60;;;;;;5054163;28;20154;-64
2022/07/23 08:22:56;;;;;;;1.70;0.60;;;22.50;69.30;;;;;;5068678;28;20120;-64
2022/07/23 08:25:27;;;;;;;9.00;1.30;;;22.30;67.90;;;;;;5057327;28;20482;-63
2022/07/23 08:27:53;;;;;;;4.35;0.73;;;22.10;69.00;;;;;;5050024;28;21163;-63
2022/07/23 08:30:20;;;;;;;2.83;0.80;;;21.90;69.90;;;;;;5051757;28;20124;-63
2022/07/23 08:32:49;;;;;;;1.25;0.70;;;21.80;70.70;;;;;;5051789;28;20473;-63
2022/07/23 08:35:15;;;;;;;0.80;0.55;;;22.10;70.40;;;;;;5051688;28;20037;-63
2022/07/23 08:37:41;;;;;;;1.20;0.60;;;22.50;70.40;;;;;;5064246;28;20029;-64
2022/07/23 08:40:07;;;;;;;0.93;0.43;;;23.10;69.20;;;;;;5063432;28;20495;-64
2022/07/23 08:42:35;;;;;;;0.88;0.50;;;23.50;67.00;;;;;;5064026;28;20036;-64
2022/07/23 08:45:02;;;;;;;3.13;0.50;;;24.30;64.00;;;;;;5062734;28;20484;-64
2022/07/23 08:47:29;;;;;;;1.58;0.47;;;24.60;61.40;;;;;;5057041;28;20452;-64
2022/07/23 08:49:56;;;;;;;2.08;0.50;;;24.30;61.60;;;;;;5062880;28;20048;-64
2022/07/23 08:52:23;;;;;;;0.45;0.40;;;24.30;60.80;;;;;;5060078;28;20040;-64
2022/07/23 08:54:48;;;;;;;2.60;0.55;;;23.90;61.50;;;;;;5053613;28;20041;-64
2022/07/23 08:57:14;;;;;;;2.10;0.50;;;23.40;61.50;;;;;;5049841;28;20064;-64
2022/07/23 08:59:41;;;;;;;1.35;0.30;;;23.00;62.70;;;;;;5061093;28;20090;-63
2022/07/23 09:02:06;;;;;;;1.02;0.50;;;23.30;60.50;;;;;;5046310;28;20125;-64
2022/07/23 09:04:32;;;;;;;0.98;0.30;;;24.20;58.90;;;;;;5044055;28;20159;-65
2022/07/23 09:06:59;;;;;;;1.95;0.60;;;24.60;55.60;;;;;;5060365;28;20549;-64
2022/07/23 09:09:29;;;;;;;1.15;0.50;;;25.50;54.30;;;;;;5057402;28;20040;-64
2022/07/23 09:12:05;;;;;;;1.05;0.30;;;26.40;53.00;;;;;;5060523;28;20484;-64
2022/07/23 09:14:39;;;;;;;1.10;0.40;;;26.10;50.70;;;;;;5048319;28;20120;-63
2022/07/23 09:17:16;;;;;;;1.20;0.40;;;25.50;50.00;;;;;;5051849;28;20048;-64
2022/07/23 09:19:43;;;;;;;1.48;0.40;;;25.30;50.90;;;;;;5035527;28;20098;-64
2022/07/23 09:22:26;;;;;;;0.77;0.30;;;25.80;50.80;;;;;;5051176;28;20051;-64
2022/07/23 09:25:09;;;;;;;0.80;0.40;;;26.70;50.20;;;;;;5053430;28;20118;-64
2022/07/23 09:28:02;;;;;;;1.33;0.40;;;27.20;48.60;;;;;;5057758;28;20044;-64
2022/07/23 09:30:30;;;;;;;0.80;0.40;;;27.20;46.80;;;;;;5056648;28;20121;-65
2022/07/23 09:33:15;;;;;;;0.93;0.40;;;26.60;48.30;;;;;;5064834;28;20044;-65
2022/07/23 09:35:58;;;;;;;1.40;0.40;;;26.60;46.20;;;;;;5069754;28;20115;-64
2022/07/23 09:38:25;;;;;;;1.60;0.50;;;26.10;46.20;;;;;;5054201;28;20040;-64
2022/07/23 09:41:07;;;;;;;0.95;0.40;;;25.70;48.70;;;;;;5064026;28;20400;-64
2022/07/23 09:43:33;;;;;;;1.50;0.50;;;25.70;48.90;;;;;;5055749;28;20047;-64
2022/07/23 09:46:20;;;;;;;0.82;0.47;;;26.60;48.10;;;;;;5050905;28;20037;-64
2022/07/23 09:48:47;;;;;;;1.05;0.45;;;27.80;45.50;;;;;;5050971;28;20045;-64
2022/07/23 09:51:23;;;;;;;0.70;0.30;;;28.20;44.20;;;;;;5057892;28;20124;-64
2022/07/23 09:53:49;;;;;;;1.85;0.47;;;28.10;44.40;;;;;;5061475;28;20123;-64
2022/07/23 09:56:15;;;;;;;0.70;0.30;;;27.20;45.50;;;;;;5060644;28;20144;-64
2022/07/23 09:58:51;;;;;;;0.60;0.40;;;26.40;46.10;;;;;;5066459;28;20066;-64
2022/07/23 10:01:17;;;;;;;0.98;0.40;;;26.20;47.00;;;;;;5050781;28;20072;-64
2022/07/23 10:03:44;;;;;;;0.82;0.50;;;26.30;47.20;;;;;;5053785;28;20083;-64
2022/07/23 10:06:12;;;;;;;1.27;0.63;;;26.20;47.50;;;;;;5052094;28;20051;-64
2022/07/23 10:08:41;;;;;;;0.75;0.45;;;26.20;47.90;;;;;;5050407;28;20067;-65
2022/07/23 10:11:07;;;;;;;0.90;0.50;;;26.40;48.20;;;;;;5056312;28;20036;-65
2022/07/23 10:16:11;;;;;;;1.73;0.50;;;27.50;46.20;;;;;;5053543;28;20044;-64
2022/07/23 10:18:37;;;;;;;1.25;0.45;;;27.00;45.60;;;;;;5053989;28;20388;-63
2022/07/23 10:21:07;;;;;;;1.95;0.40;;;26.80;46.00;;;;;;5058625;28;20086;-64
2022/07/23 10:23:48;;;;;;;0.82;0.45;;;26.40;46.50;;;;;;5052512;28;20037;-65
2022/07/23 10:26:41;;;;;;;1.00;0.50;;;26.90;46.70;;;;;;5063312;28;20147;-64
2022/07/23 10:29:38;;;;;;;1.45;0.60;;;26.70;47.70;;;;;;5053882;28;20515;-64
2022/07/23 10:32:53;;;;;;;1.05;0.47;;;26.40;47.20;;;;;;5063452;28;20028;-66
2022/07/23 10:35:34;;;;;;;1.98;0.50;;;25.80;46.20;;;;;;5044219;28;20103;-64
2022/07/23 10:38:21;;;;;;;1.80;0.47;;;25.60;48.40;;;;;;5063793;28;20501;-64
2022/07/23 10:41:02;;;;;;;0.60;0.60;;;26.40;48.60;;;;;;5059729;28;20036;-64
2022/07/23 10:43:28;;;;;;;1.05;0.63;;;26.60;48.50;;;;;;5052534;28;20037;-65
2022/07/23 10:45:54;;;;;;;3.35;0.60;;;26.20;47.70;;;;;;5052977;28;20090;-65
2022/07/23 10:48:21;;;;;;;1.98;0.60;;;26.30;48.00;;;;;;5056322;28;20392;-64
2022/07/23 10:51:10;;;;;;;3.83;0.80;;;26.40;47.70;;;;;;5055233;28;20138;-65
2022/07/23 10:53:51;;;;;;;1.17;0.60;;;26.40;47.90;;;;;;5055251;28;20068;-65
2022/07/23 10:56:37;;;;;;;1.83;0.98;;;26.20;46.90;;;;;;5052410;28;20770;-65
2022/07/23 10:59:04;;;;;;;2.08;0.70;;;25.60;48.00;;;;;;5047810;28;20057;-64
2022/07/23 11:01:38;;;;;;;1.80;0.68;;;25.40;48.10;;;;;;5056280;28;20032;-65
2022/07/23 11:04:07;;;;;;;1.27;0.52;;;25.40;48.10;;;;;;5058671;28;20127;-66
2022/07/23 11:06:50;;;;;;;0.77;0.50;;;25.30;48.50;;;;;;5052014;28;20152;-64
2022/07/23 11:09:41;;;;;;;0.73;0.60;;;24.80;48.70;;;;;;5052980;28;20036;-65
2022/07/23 11:12:13;;;;;;;2.15;0.75;;;24.50;49.60;;;;;;5057338;28;20033;-65
2022/07/23 11:15:04;;;;;;;0.90;0.55;;;24.50;50.60;;;;;;5053962;28;20400;-65
2022/07/23 11:17:32;;;;;;;2.47;0.82;;;24.70;51.10;;;;;;5058619;28;20037;-64
2022/07/23 11:20:11;;;;;;;0.50;0.50;;;24.80;51.50;;;;;;5060044;28;20492;-63
2022/07/23 11:22:49;;;;;;;1.13;0.77;;;25.10;50.90;;;;;;5058725;28;20044;-65
2022/07/23 11:25:30;;;;;;;1.00;0.60;;;24.90;50.20;;;;;;5061429;28;20064;-63
2022/07/23 11:28:17;;;;;;;1.17;0.60;;;25.10;49.40;;;;;;5053541;28;20063;-64
2022/07/23 11:30:47;;;;;;;1.90;0.70;;;25.20;50.50;;;;;;5070207;28;20043;-65
2022/07/23 11:33:13;;;;;;;1.08;0.80;;;25.20;50.70;;;;;;5053287;28;20128;-64
2022/07/23 11:35:47;;;;;;;0.90;0.77;;;25.50;50.80;;;;;;5054617;28;20135;-64
2022/07/23 11:38:18;;;;;;;0.95;0.60;;;25.30;50.10;;;;;;5063096;28;20116;-64
2022/07/23 11:40:51;;;;;;;1.58;0.60;;;25.30;50.70;;;;;;5050282;28;20041;-64
2022/07/23 11:43:17;;;;;;;1.55;0.80;;;25.50;51.10;;;;;;5057628;28;20068;-64
2022/07/23 11:45:46;;;;;;;0.80;0.60;;;25.30;50.20;;;;;;5062084;28;20047;-64
2022/07/23 11:48:21;;;;;;;2.25;0.80;;;25.20;50.50;;;;;;5064157;28;20481;-65
2022/07/23 11:50:47;;;;;;;3.03;0.82;;;25.10;51.40;;;;;;5063267;28;20115;-64
2022/07/23 11:53:28;;;;;;;2.35;1.10;;;24.80;51.10;;;;;;5054495;28;20128;-65
2022/07/23 11:55:54;;;;;;;2.55;0.80;;;25.00;50.40;;;;;;5058627;28;20394;-64
2022/07/23 11:58:21;;;;;;;3.08;0.90;;;25.00;50.90;;;;;;5062213;28;20049;-64
2022/07/23 12:00:47;;;;;;;2.20;0.73;;;25.20;51.00;;;;;;5055069;28;20480;-64
2022/07/23 12:03:12;;;;;;;1.50;1.10;;;25.10;51.10;;;;;;5055369;28;20120;-65
2022/07/23 12:05:39;;;;;;;1.40;0.80;;;24.80;51.10;;;;;;5059214;28;20052;-65
2022/07/23 12:08:07;;;;;;;2.10;0.85;;;24.70;51.50;;;;;;5061691;28;20040;-63
2022/07/23 12:10:36;;;;;;;1.10;0.63;;;24.60;52.20;;;;;;5049664;28;20118;-63
2022/07/23 12:13:05;;;;;;;1.50;0.90;;;24.70;52.80;;;;;;5048649;28;20037;-64
2022/07/23 12:15:38;;;;;;;1.87;0.70;;;24.80;52.90;;;;;;5073487;28;20124;-63
2022/07/23 12:18:06;;;;;;;2.40;0.88;;;24.80;53.20;;;;;;5056594;28;20041;-64
2022/07/23 12:20:41;;;;;;;2.25;1.02;;;24.80;53.30;;;;;;5062286;28;20036;-63
2022/07/23 12:23:09;;;;;;;2.28;0.90;;;24.80;53.70;;;;;;5050925;28;20044;-64
2022/07/23 12:25:37;;;;;;;2.78;0.95;;;24.80;53.70;;;;;;5058409;28;20044;-64
2022/07/23 12:28:18;;;;;;;1.42;0.93;;;24.80;53.30;;;;;;5063819;28;20381;-63
2022/07/23 12:30:48;;;;;;;2.58;0.90;;;24.90;53.60;;;;;;5060702;28;20091;-63
2022/07/23 12:33:15;;;;;;;;;;;25.00;53.80;;;;;;5059128;28;20045;-64
2022/07/23 12:35:47;;;;;;;1.40;1.15;;;24.90;54.50;;;;;;5052289;28;19921;-64
2022/07/23 12:38:15;;;;;;;1.40;1.05;;;25.00;53.70;;;;;;5048952;28;20481;-64
2022/07/23 12:40:47;;;;;;;2.08;0.93;;;25.20;53.30;;;;;;5048803;28;20044;-64
2022/07/23 12:43:22;;;;;;;2.40;1.20;;;25.30;52.90;;;;;;5056052;28;20040;-64
2022/07/23 12:45:53;;;;;;;2.03;1.08;;;25.30;51.70;;;;;;5048659;28;20469;-64
2022/07/23 12:48:20;;;;;;;1.13;0.90;;;25.40;52.00;;;;;;5056426;28;20762;-64
2022/07/23 12:51:03;;;;;;;1.60;0.93;;;25.60;52.20;;;;;;5054673;28;20399;-64
2022/07/23 12:53:40;;;;;;;1.42;1.00;;;25.60;52.50;;;;;;5051746;28;20112;-66
2022/07/23 12:56:17;;;;;;;1.65;1.05;;;25.80;52.60;;;;;;5052247;28;20076;-65